createdAt,value
2019-04-20T00:01:32.297Z,55.29
2019-04-20T00:03:56.066Z,55.17
2019-04-20T00:06:21.974Z,55.49
2019-04-20T00:08:58.117Z,56.00
2019-04-20T00:11:20.989Z,56.19
2019-04-20T00:13:52.548Z,56.77
2019-04-20T00:16:12.641Z,56.46
2019-04-20T00:18:45.921Z,56.70
2019-04-20T00:21:25.185Z,56.75
2019-04-20T00:23:51.769Z,57.04
2019-04-20T00:27:02.007Z,57.13
2019-04-20T00:29:20.199Z,57.45
2019-04-20T00:31:43.050Z,57.81
2019-04-20T00:34:06.603Z,57.71
2019-04-20T00:36:24.715Z,58.08
2019-04-20T00:38:55.935Z,58.10
2019-04-20T00:41:22.516Z,58.07
2019-04-20T00:43:49.254Z,58.57
2019-04-20T00:46:22.690Z,58.83
2019-04-20T00:48:50.625Z,59.05
2019-04-20T00:51:41.905Z,59.34
2019-04-20T00:53:43.245Z,60.18
2019-04-20T00:56:07.531Z,60.80
2019-04-20T00:58:41.639Z,61.04
2019-04-20T01:01:21.878Z,60.86
2019-04-20T01:03:43.190Z,60.76
2019-04-20T01:06:19.259Z,60.62
2019-04-20T01:08:29.530Z,60.57
2019-04-20T01:10:57.691Z,60.68
2019-04-20T01:13:24.968Z,60.83
2019-04-20T01:15:58.939Z,61.18
2019-04-20T01:18:18.578Z,61.43
2019-04-20T01:20:45.247Z,61.64
2019-04-20T01:23:14.364Z,61.78
2019-04-20T01:25:42.460Z,61.90
2019-04-20T01:28:25.062Z,61.41
2019-04-20T01:30:39.796Z,61.73
2019-04-20T01:33:16.001Z,62.06
2019-04-20T01:35:45.009Z,62.41
2019-04-20T01:38:18.227Z,62.42
2019-04-20T01:40:25.716Z,62.45
2019-04-20T01:42:53.135Z,62.48
2019-04-20T01:45:27.088Z,62.71
2019-04-20T01:47:51.509Z,62.49
2019-04-20T01:50:20.953Z,62.35
2019-04-20T01:52:56.923Z,62.50
2019-04-20T01:55:44.125Z,62.24
2019-04-20T01:58:25.384Z,62.59
2019-04-20T02:00:40.814Z,63.34
2019-04-20T02:03:31.377Z,63.89
2019-04-20T02:06:02.250Z,64.10
2019-04-20T02:08:25.843Z,64.12
2019-04-20T02:10:54.312Z,64.29
2019-04-20T02:13:19.505Z,63.90
2019-04-20T02:15:51.244Z,63.94
2019-04-20T02:18:26.985Z,63.81
2019-04-20T02:21:00.206Z,64.04
2019-04-20T02:23:21.457Z,64.18
2019-04-20T02:25:37.653Z,64.29
2019-04-20T02:28:24.279Z,64.28
2019-04-20T02:31:06.532Z,64.77
2019-04-20T02:33:42.721Z,64.60
2019-04-20T02:36:24.762Z,64.66
2019-04-20T02:39:05.890Z,64.88
2019-04-20T02:41:11.547Z,65.09
2019-04-20T02:43:51.180Z,65.28
2019-04-20T02:46:24.689Z,64.83
2019-04-20T02:48:31.692Z,64.51
2019-04-20T02:51:06.622Z,64.48
2019-04-20T02:53:41.464Z,64.38
2019-04-20T02:58:22.881Z,64.37
2019-04-20T03:00:44.779Z,64.37
2019-04-20T03:03:04.561Z,64.40
2019-04-20T03:05:29.802Z,64.52
2019-04-20T03:08:04.627Z,64.49
2019-04-20T03:10:44.148Z,64.56
2019-04-20T03:13:05.341Z,64.56
2019-04-20T03:15:36.629Z,65.06
2019-04-20T03:18:03.494Z,65.05
2019-04-20T03:20:27.114Z,65.25
2019-04-20T03:25:53.401Z,65.33
2019-04-20T03:28:10.827Z,65.54
2019-04-20T03:31:41.140Z,65.81
2019-04-20T03:33:44.695Z,66.27
2019-04-20T03:36:00.381Z,66.39
2019-04-20T03:38:16.887Z,66.51
2019-04-20T03:40:40.265Z,66.75
2019-04-20T03:42:52.999Z,67.08
2019-04-20T03:45:22.682Z,67.55
2019-04-20T03:47:57.373Z,67.45
2019-04-20T03:50:37.127Z,67.16
2019-04-20T03:53:08.377Z,67.02
2019-04-20T03:55:39.650Z,66.94
2019-04-20T03:58:24.435Z,67.06
2019-04-20T04:06:10.511Z,67.32
2019-04-20T04:08:35.317Z,67.57
2019-04-20T04:11:14.822Z,67.72
2019-04-20T04:13:23.068Z,67.68
2019-04-20T04:15:55.638Z,67.64
2019-04-20T04:18:26.005Z,67.68
2019-04-20T04:20:53.997Z,67.86
2019-04-20T04:23:33.657Z,68.02
2019-04-20T04:25:59.381Z,68.04
2019-04-20T04:28:29.856Z,68.26
2019-04-20T04:30:59.807Z,68.23
2019-04-20T04:33:47.465Z,68.50
2019-04-20T04:35:51.537Z,68.42
2019-04-20T04:38:30.100Z,68.27
2019-04-20T04:41:04.317Z,68.45
2019-04-20T04:43:22.100Z,68.60
2019-04-20T04:45:31.457Z,68.63
2019-04-20T04:47:55.641Z,68.53
2019-04-20T04:50:25.217Z,68.39
2019-04-20T04:53:01.034Z,68.78
2019-04-20T04:55:30.819Z,68.87
2019-04-20T04:57:45.636Z,68.95
2019-04-20T05:00:19.834Z,69.01
2019-04-20T05:02:46.472Z,68.88
2019-04-20T05:05:34.149Z,68.48
2019-04-20T05:07:52.105Z,68.83
2019-04-20T05:10:08.107Z,68.54
2019-04-20T05:12:35.913Z,68.48
2019-04-20T05:15:11.281Z,68.61
2019-04-20T05:17:51.121Z,68.55
2019-04-20T05:20:19.032Z,68.23
2019-04-20T05:22:45.547Z,67.26
2019-04-20T05:25:31.116Z,66.48
2019-04-20T05:28:03.064Z,67.73
2019-04-20T05:30:14.060Z,68.60
2019-04-20T05:32:51.392Z,69.06
2019-04-20T05:35:36.452Z,68.43
2019-04-20T05:38:05.127Z,67.98
2019-04-20T05:40:26.233Z,68.53
2019-04-20T05:42:56.546Z,66.92
2019-04-20T05:45:19.698Z,66.20
2019-04-20T05:47:49.620Z,65.71
2019-04-20T05:50:17.879Z,66.10
2019-04-20T05:52:56.418Z,66.25
2019-04-20T05:55:20.969Z,65.60
2019-04-20T05:57:52.385Z,65.18
2019-04-20T06:00:14.600Z,64.51
2019-04-20T06:02:46.938Z,64.49
2019-04-20T06:05:20.676Z,63.70
2019-04-20T06:07:37.405Z,63.74
2019-04-20T06:10:06.223Z,63.75
2019-04-20T06:12:35.735Z,63.69
2019-04-20T06:15:12.757Z,63.97
2019-04-20T06:17:51.503Z,63.40
2019-04-20T06:20:20.210Z,64.05
2019-04-20T06:22:57.372Z,63.58
2019-04-20T06:25:33.369Z,63.25
2019-04-20T06:27:45.045Z,62.76
2019-04-20T06:30:06.842Z,63.20
2019-04-20T06:33:26.720Z,60.79
2019-04-20T06:36:07.377Z,60.34
2019-04-20T06:38:35.318Z,60.19
2019-04-20T06:40:56.570Z,59.43
2019-04-20T06:43:05.259Z,60.29
2019-04-20T06:45:49.196Z,59.86
2019-04-20T06:48:12.258Z,58.67
2019-04-20T06:50:28.852Z,59.34
2019-04-20T06:53:25.579Z,58.33
2019-04-20T06:55:51.092Z,57.80
2019-04-20T06:58:29.123Z,57.88
2019-04-20T07:00:42.191Z,55.99
2019-04-20T07:03:05.770Z,55.78
2019-04-20T07:05:33.013Z,54.07
2019-04-20T07:08:16.586Z,52.44
2019-04-20T07:10:38.069Z,51.69
2019-04-20T07:12:55.321Z,50.92
2019-04-20T07:15:30.235Z,50.97
2019-04-20T07:18:03.212Z,51.77
2019-04-20T07:20:55.470Z,53.54
2019-04-20T07:23:23.757Z,52.13
2019-04-20T07:25:43.246Z,51.56
2019-04-20T07:28:14.451Z,46.83
2019-04-20T07:30:42.399Z,43.68
2019-04-20T07:33:04.121Z,41.17
2019-04-20T07:35:37.037Z,38.50
2019-04-20T07:38:21.035Z,38.05
2019-04-20T07:40:36.073Z,38.05
2019-04-20T07:43:04.432Z,39.57
2019-04-20T07:48:09.334Z,39.70
2019-04-20T07:50:27.045Z,39.45
2019-04-20T07:52:48.583Z,39.68
2019-04-20T07:55:40.439Z,40.69
2019-04-20T07:57:46.647Z,41.18
2019-04-20T08:00:27.881Z,38.24
2019-04-20T08:03:12.850Z,38.85
2019-04-20T08:05:33.558Z,38.77
2019-04-20T08:08:02.536Z,40.90
2019-04-20T08:10:34.157Z,39.61
2019-04-20T08:13:09.302Z,40.73
2019-04-20T08:15:49.496Z,42.58
2019-04-20T08:17:59.677Z,42.58
2019-04-20T08:20:29.866Z,41.03
2019-04-20T08:23:02.948Z,40.75
2019-04-20T08:25:20.237Z,39.24
2019-04-20T08:27:52.929Z,39.24
2019-04-20T08:30:38.494Z,39.28
2019-04-20T08:33:09.534Z,40.09
2019-04-20T08:35:46.433Z,40.45
2019-04-20T08:38:47.335Z,39.63
2019-04-20T08:40:44.081Z,40.30
2019-04-20T08:43:20.936Z,40.40
2019-04-20T08:45:42.051Z,40.03
2019-04-20T08:48:13.596Z,41.14
2019-04-20T08:50:35.599Z,40.16
2019-04-20T08:53:15.994Z,40.16
2019-04-20T08:55:32.404Z,40.15
2019-04-20T08:57:38.105Z,39.78
2019-04-20T09:00:07.235Z,39.78
2019-04-20T09:02:34.703Z,42.07
2019-04-20T09:05:08.623Z,42.07
2019-04-20T09:07:33.246Z,41.69
2019-04-20T09:10:16.615Z,42.06
2019-04-20T09:12:40.608Z,42.34
2019-04-20T09:14:53.067Z,41.52
2019-04-20T09:17:29.941Z,40.86
2019-04-20T09:19:55.893Z,40.58
2019-04-20T09:22:48.200Z,41.29
2019-04-20T09:27:40.855Z,40.13
2019-04-20T09:30:17.709Z,40.84
2019-04-20T09:32:44.060Z,39.94
2019-04-20T09:35:21.686Z,40.60
2019-04-20T09:37:50.642Z,37.78
2019-04-20T09:40:21.873Z,39.87
2019-04-20T09:42:32.901Z,40.60
2019-04-20T09:45:02.426Z,40.18
2019-04-20T09:47:34.315Z,40.70
2019-04-20T09:50:03.597Z,39.85
2019-04-20T09:52:37.794Z,39.40
2019-04-20T09:55:04.315Z,39.07
2019-04-20T09:57:38.074Z,37.45
2019-04-20T10:00:01.723Z,37.34
2019-04-20T10:02:22.033Z,40.53
2019-04-20T10:04:41.849Z,40.08
2019-04-20T10:07:12.757Z,40.13
2019-04-20T10:09:40.829Z,37.94
2019-04-20T10:12:03.787Z,39.10
2019-04-20T10:14:30.973Z,35.88
2019-04-20T10:16:57.975Z,33.55
2019-04-20T10:19:30.383Z,38.17
2019-04-20T10:21:52.822Z,37.27
2019-04-20T10:24:18.914Z,37.17
2019-04-20T10:26:44.962Z,35.62
2019-04-20T10:29:10.767Z,37.17
2019-04-20T10:31:42.581Z,34.74
2019-04-20T10:34:04.527Z,37.10
2019-04-20T10:36:33.358Z,34.23
2019-04-20T10:39:00.301Z,37.28
2019-04-20T10:41:36.113Z,35.01
2019-04-20T10:43:53.892Z,32.76
2019-04-20T10:46:20.728Z,34.04
2019-04-20T10:48:50.831Z,35.70
2019-04-20T10:51:15.615Z,34.86
2019-04-20T10:53:42.366Z,36.95
2019-04-20T10:56:09.595Z,33.99
2019-04-20T10:58:35.861Z,33.16
2019-04-20T11:01:02.108Z,35.80
2019-04-20T11:03:28.880Z,35.91
2019-04-20T11:05:54.817Z,36.96
2019-04-20T11:08:22.154Z,36.63
2019-04-20T11:11:00.283Z,35.71
2019-04-20T11:13:17.217Z,34.49
2019-04-20T11:15:44.281Z,31.18
2019-04-20T11:18:11.341Z,31.69
2019-04-20T11:20:37.638Z,31.37
2019-04-20T11:23:04.400Z,31.55
2019-04-20T11:25:30.380Z,31.58
2019-04-20T11:27:56.424Z,31.38
2019-04-20T11:30:22.547Z,30.38
2019-04-20T11:32:48.901Z,29.56
2019-04-20T11:35:23.813Z,30.48
2019-04-20T11:37:43.167Z,30.96
2019-04-20T11:40:10.914Z,29.04
2019-04-20T11:42:37.411Z,29.71
2019-04-20T11:45:06.735Z,29.02
2019-04-20T11:47:33.693Z,29.47
2019-04-20T11:49:59.627Z,27.94
2019-04-20T11:52:27.063Z,28.49
2019-04-20T11:54:54.561Z,28.50
2019-04-20T11:57:21.563Z,27.49
2019-04-20T11:59:48.415Z,29.66
2019-04-20T12:02:30.137Z,29.48
2019-04-20T12:05:07.540Z,30.50
2019-04-20T12:07:24.791Z,27.80
2019-04-20T12:09:51.519Z,26.90
2019-04-20T12:12:29.428Z,27.00
2019-04-20T12:14:46.432Z,27.20
2019-04-20T12:17:13.583Z,25.58
2019-04-20T12:19:43.760Z,26.00
2019-04-20T12:22:10.018Z,26.82
2019-04-20T12:24:36.202Z,28.04
2019-04-20T12:27:02.936Z,26.94
2019-04-20T12:29:32.124Z,26.13
2019-04-20T12:32:01.793Z,26.18
2019-04-20T12:34:26.473Z,26.02
2019-04-20T12:36:53.293Z,26.26
2019-04-20T12:39:19.418Z,25.95
2019-04-20T12:41:53.000Z,24.30
2019-04-20T12:44:14.179Z,24.84
2019-04-20T12:46:41.488Z,25.94
2019-04-20T12:49:07.778Z,25.05
2019-04-20T12:51:41.220Z,25.19
2019-04-20T12:54:02.596Z,26.60
2019-04-20T12:56:28.563Z,25.90
2019-04-20T12:58:55.836Z,25.29
2019-04-20T13:01:22.861Z,26.22
2019-04-20T13:03:49.843Z,27.41
2019-04-20T13:06:16.317Z,25.44
2019-04-20T13:08:47.610Z,25.47
2019-04-20T13:11:16.190Z,25.41
2019-04-20T13:13:56.985Z,27.62
2019-04-20T13:16:28.179Z,26.25
2019-04-20T13:18:59.417Z,24.31
2019-04-20T13:21:25.258Z,31.56
2019-04-20T13:23:51.290Z,28.99
2019-04-20T13:26:17.619Z,28.58
2019-04-20T13:28:43.673Z,29.31
2019-04-20T13:31:09.845Z,27.44
2019-04-20T13:33:36.690Z,25.00
2019-04-20T13:36:04.057Z,24.33
2019-04-20T13:38:30.252Z,25.56
2019-04-20T13:40:56.104Z,25.08
2019-04-20T13:43:21.951Z,28.37
2019-04-20T13:45:48.959Z,28.37
2019-04-20T13:48:15.269Z,29.51
2019-04-20T13:50:42.255Z,27.70
2019-04-20T13:53:09.381Z,28.77
2019-04-20T13:55:35.924Z,28.46
2019-04-20T13:58:07.338Z,26.96
2019-04-20T14:00:54.067Z,27.42
2019-04-20T14:03:22.835Z,24.78
2019-04-20T14:05:48.918Z,26.02
2019-04-20T14:08:18.542Z,27.38
2019-04-20T14:10:45.132Z,24.43
2019-04-20T14:13:16.569Z,25.52
2019-04-20T14:15:38.854Z,25.19
2019-04-20T14:18:04.993Z,25.57
2019-04-20T14:20:31.960Z,25.63
2019-04-20T14:22:58.888Z,24.48
2019-04-20T14:25:25.176Z,24.76
2019-04-20T14:27:51.265Z,24.29
2019-04-20T14:30:17.291Z,23.80
2019-04-20T14:32:43.369Z,24.19
2019-04-20T14:35:09.355Z,24.00
2019-04-20T14:37:36.050Z,23.02
2019-04-20T14:40:04.181Z,22.75
2019-04-20T14:42:36.437Z,22.71
2019-04-20T14:44:57.712Z,22.60
2019-04-20T14:47:23.675Z,21.50
2019-04-20T14:49:50.534Z,21.94
2019-04-20T14:52:17.669Z,21.19
2019-04-20T14:54:43.846Z,20.96
2019-04-20T14:57:09.737Z,20.86
2019-04-20T14:59:37.870Z,19.94
2019-04-20T15:02:06.553Z,20.36
2019-04-20T15:04:32.874Z,21.30
2019-04-20T15:07:00.189Z,20.46
2019-04-20T15:09:26.677Z,20.35
2019-04-20T15:11:52.795Z,20.69
2019-04-20T15:14:18.826Z,19.19
2019-04-20T15:16:44.658Z,19.47
2019-04-20T15:19:13.605Z,20.44
2019-04-20T15:21:45.399Z,19.79
2019-04-20T15:24:11.434Z,20.89
2019-04-20T15:26:38.487Z,20.52
2019-04-20T15:29:04.534Z,20.82
2019-04-20T15:31:30.570Z,20.55
2019-04-20T15:33:57.088Z,20.34
2019-04-20T15:36:24.011Z,20.08
2019-04-20T15:38:51.285Z,20.49
2019-04-20T15:41:18.487Z,19.61
2019-04-20T15:43:53.238Z,20.60
2019-04-20T15:46:19.523Z,19.45
2019-04-20T15:48:46.199Z,20.30
2019-04-20T15:51:12.151Z,20.03
2019-04-20T15:53:37.954Z,19.61
2019-04-20T15:56:07.610Z,19.96
2019-04-20T15:58:32.357Z,19.92
2019-04-20T16:00:58.883Z,20.37
2019-04-20T16:03:29.831Z,20.42
2019-04-20T16:05:58.825Z,20.37
2019-04-20T16:08:36.649Z,20.34
2019-04-20T16:11:04.690Z,20.43
2019-04-20T16:13:37.446Z,19.36
2019-04-20T16:15:58.765Z,19.17
2019-04-20T16:18:25.150Z,19.06
2019-04-20T16:21:01.630Z,19.42
2019-04-20T16:23:18.726Z,19.31
2019-04-20T16:25:49.913Z,19.63
2019-04-20T16:28:19.448Z,19.76
2019-04-20T16:30:45.537Z,19.31
2019-04-20T16:33:14.678Z,19.58
2019-04-20T16:35:40.640Z,19.90
2019-04-20T16:38:10.677Z,20.01
2019-04-20T16:40:37.813Z,20.39
2019-04-20T16:43:15.259Z,19.72
2019-04-20T16:45:32.928Z,19.67
2019-04-20T16:48:01.531Z,20.15
2019-04-20T16:50:26.958Z,19.69
2019-04-20T16:52:52.883Z,19.73
2019-04-20T16:55:18.977Z,20.22
2019-04-20T16:57:50.068Z,20.63
2019-04-20T17:00:17.908Z,20.62
2019-04-20T17:02:44.585Z,21.00
2019-04-20T17:05:11.319Z,21.73
2019-04-20T17:07:39.443Z,22.06
2019-04-20T17:10:07.929Z,21.56
2019-04-20T17:12:33.802Z,22.09
2019-04-20T17:14:59.639Z,22.39
2019-04-20T17:17:25.647Z,22.67
2019-04-20T17:19:51.838Z,22.96
2019-04-20T17:22:17.630Z,23.92
2019-04-20T17:24:43.467Z,23.50
2019-04-20T17:27:26.836Z,23.89
2019-04-20T17:29:59.017Z,24.11
2019-04-20T17:32:27.462Z,24.84
2019-04-20T17:35:09.183Z,25.20
2019-04-20T17:37:22.640Z,25.37
2019-04-20T17:40:06.445Z,25.34
2019-04-20T17:42:30.495Z,25.99
2019-04-20T17:44:52.776Z,26.60
2019-04-20T17:47:32.923Z,27.10
2019-04-20T17:50:00.718Z,27.44
2019-04-20T17:52:28.302Z,28.27
2019-04-20T17:54:39.774Z,28.00
2019-04-20T17:57:09.093Z,27.42
2019-04-20T17:59:37.875Z,28.02
2019-04-20T18:02:25.078Z,28.35
2019-04-20T18:05:16.897Z,28.41
2019-04-20T18:07:36.727Z,28.79
2019-04-20T18:10:05.716Z,28.80
2019-04-20T18:12:25.214Z,28.88
2019-04-20T18:14:54.682Z,29.12
2019-04-20T18:17:29.386Z,29.11
2019-04-20T18:19:52.055Z,28.65
2019-04-20T18:22:19.536Z,29.49
2019-04-20T18:25:08.914Z,29.65
2019-04-20T18:27:37.385Z,29.37
2019-04-20T18:30:04.082Z,29.75
2019-04-20T18:32:20.382Z,29.95
2019-04-20T18:34:53.745Z,29.85
2019-04-20T18:37:19.945Z,30.53
2019-04-20T18:39:53.400Z,29.96
2019-04-20T18:42:18.463Z,29.79
2019-04-20T18:45:07.424Z,29.67
2019-04-20T18:47:28.792Z,29.98
2019-04-20T18:49:46.554Z,30.42
2019-04-20T18:52:04.049Z,30.16
2019-04-20T18:54:34.610Z,30.84
2019-04-20T18:56:59.804Z,31.49
2019-04-20T18:59:31.775Z,32.04
2019-04-20T19:01:55.117Z,32.10
2019-04-20T19:04:21.777Z,32.71
2019-04-20T19:06:49.928Z,33.25
2019-04-20T19:09:21.613Z,33.74
2019-04-20T19:11:50.898Z,33.86
2019-04-20T19:14:35.648Z,34.14
2019-04-20T19:17:23.096Z,33.96
2019-04-20T19:19:48.486Z,34.99
2019-04-20T19:22:12.196Z,34.81
2019-04-20T19:24:39.823Z,34.81
2019-04-20T19:27:10.644Z,35.44
2019-04-20T19:29:40.307Z,35.42
2019-04-20T19:32:19.486Z,35.42
2019-04-20T19:34:44.620Z,36.06
2019-04-20T19:37:11.841Z,35.85
2019-04-20T19:39:38.515Z,36.01
2019-04-20T19:42:13.103Z,35.79
2019-04-20T19:44:38.107Z,35.97
2019-04-20T19:47:11.369Z,35.65
2019-04-20T19:49:34.011Z,35.65
2019-04-20T19:52:21.036Z,35.65
2019-04-20T19:54:38.985Z,35.80
2019-04-20T19:56:58.698Z,35.78
2019-04-20T19:59:21.773Z,35.78
2019-04-20T20:01:38.222Z,36.14
2019-04-20T20:04:07.603Z,36.18
2019-04-20T20:06:39.172Z,35.49
2019-04-20T20:09:05.267Z,37.05
2019-04-20T20:11:32.320Z,36.85
2019-04-20T20:13:57.161Z,36.56
2019-04-20T20:16:29.175Z,36.68
2019-04-20T20:19:02.714Z,37.18
2019-04-20T20:21:27.058Z,37.11
2019-04-20T20:23:47.879Z,37.44
2019-04-20T20:26:23.043Z,37.25
2019-04-20T20:28:51.788Z,37.30
2019-04-20T20:31:20.817Z,37.55
2019-04-20T20:33:49.413Z,37.67
2019-04-20T20:36:12.613Z,37.76
2019-04-20T20:38:40.023Z,38.08
2019-04-20T20:41:08.948Z,38.83
2019-04-20T20:43:44.853Z,40.49
2019-04-20T20:46:10.659Z,40.82
2019-04-20T20:48:39.918Z,40.43
2019-04-20T20:51:10.133Z,41.01
2019-04-20T20:53:35.323Z,40.63
2019-04-20T20:56:01.831Z,43.63
2019-04-20T20:58:32.363Z,44.77
2019-04-20T21:00:54.030Z,44.41
2019-04-20T21:03:23.322Z,44.13
2019-04-20T21:05:41.736Z,43.29
2019-04-20T21:08:08.009Z,43.11
2019-04-20T21:10:39.763Z,43.02
2019-04-20T21:13:06.551Z,42.70
2019-04-20T21:15:31.514Z,42.63
2019-04-20T21:18:24.281Z,41.87
2019-04-20T21:20:44.927Z,41.03
2019-04-20T21:23:06.948Z,41.59
2019-04-20T21:25:33.458Z,41.61
2019-04-20T21:27:54.950Z,42.32
2019-04-20T21:30:29.133Z,42.48
2019-04-20T21:32:52.542Z,43.01
2019-04-20T21:35:17.685Z,43.39
2019-04-20T21:37:52.484Z,43.36
2019-04-20T21:40:23.551Z,43.15
2019-04-20T21:42:47.950Z,42.95
2019-04-20T21:45:16.706Z,43.26
2019-04-20T21:47:40.862Z,43.21
2019-04-20T21:50:21.613Z,43.01
2019-04-20T21:52:39.364Z,42.59
2019-04-20T21:55:00.812Z,42.94
2019-04-20T21:57:32.592Z,42.52
2019-04-20T22:00:06.241Z,42.96
2019-04-20T22:02:28.167Z,42.66
2019-04-20T22:04:51.431Z,43.23
2019-04-20T22:07:18.503Z,43.49
2019-04-20T22:09:48.892Z,44.08
2019-04-20T22:12:12.075Z,44.34
2019-04-20T22:14:38.135Z,45.05
2019-04-20T22:17:05.639Z,45.27
2019-04-20T22:19:41.884Z,45.56
2019-04-20T22:22:09.596Z,45.11
2019-04-20T22:24:42.401Z,45.48
2019-04-20T22:27:07.534Z,45.69
2019-04-20T22:29:23.885Z,46.15
2019-04-20T22:31:53.465Z,44.83
2019-04-20T22:34:21.295Z,45.59
2019-04-20T22:36:48.580Z,45.54
2019-04-20T22:39:18.739Z,45.70
2019-04-20T22:41:54.696Z,45.82
2019-04-20T22:44:20.274Z,45.82
2019-04-20T22:46:44.149Z,46.04
2019-04-20T22:49:26.571Z,46.58
2019-04-20T22:51:48.274Z,47.10
2019-04-20T22:54:20.202Z,46.95
2019-04-20T22:56:48.277Z,46.92
2019-04-20T22:59:13.061Z,46.98
2019-04-20T23:01:40.546Z,46.95
2019-04-20T23:04:01.277Z,47.69
2019-04-20T23:06:33.401Z,47.79
2019-04-20T23:08:59.547Z,48.12
2019-04-20T23:11:27.033Z,48.61
2019-04-20T23:13:52.062Z,48.85
2019-04-20T23:16:21.421Z,48.38
2019-04-20T23:18:47.499Z,48.59
2019-04-20T23:21:17.994Z,49.07
2019-04-20T23:23:43.985Z,49.57
2019-04-20T23:26:18.088Z,49.63
2019-04-20T23:28:48.229Z,49.58
2019-04-20T23:31:16.210Z,49.62
2019-04-20T23:33:36.154Z,49.64
2019-04-20T23:36:04.585Z,49.38
2019-04-20T23:38:30.610Z,49.55
2019-04-20T23:40:57.670Z,49.77
2019-04-20T23:43:39.244Z,49.68
2019-04-20T23:46:19.579Z,50.11
2019-04-20T23:48:43.005Z,51.21
2019-04-20T23:51:35.157Z,51.57
2019-04-20T23:53:48.253Z,51.05
2019-04-20T23:56:04.139Z,51.26
2019-04-20T23:58:37.319Z,51.84
